Main page
METAR-TAF:

METAR-TAF

Airports :

Lannion – Côte de Granit Airport

Lannion, France

latitude: 48-45N, longitude: 003-28W, elevation: 89 m

Current weather observation

The report was made 42 minutes ago, at 23:30 UTC
Wind 5 kt from the North/Northeast, varying between North and East
Temperature 8°C
Humidity 81%
Pressure 1013 hPa
Visibility 10 km or more
light rain

METAR: LFRO 172330Z AUTO 02005KT 350V090 9999 -RA FEW025/// SCT034/// BKN042/// ///TCU 08/05 Q1013

Time: 01:12 (00:12 UTC)


TAF: missing

Weather observations and forecasts of more than 4000 airports (METAR and TAF reports).

The available stations are represented by yellow and red dots on the map.

Hover mouse over dot to see the name of the station.

Then click to see weather observations and forecasts.

To change the map : click on the green buttons with a black cross to zoom in, on the green button with a dash to zoom out, or on the green arrows for adjacent maps.


METAR-TAF: